createdAt,value
2022-09-22T00:52:57.169Z,21.60
2022-09-22T00:55:36.204Z,21.60
2022-09-22T01:10:43.311Z,21.80
2022-09-22T01:13:27.751Z,21.80
2022-09-22T01:16:15.317Z,21.90
2022-09-22T01:19:00.676Z,22.10
2022-09-22T01:21:47.449Z,22.00
2022-09-22T01:25:01.705Z,21.90
2022-09-22T01:28:05.563Z,22.10
2022-09-22T01:30:47.835Z,22.00
2022-09-22T01:33:42.930Z,22.10
2022-09-22T01:36:26.867Z,22.00
2022-09-22T01:39:09.585Z,22.10
2022-09-22T01:41:55.394Z,22.20
2022-09-22T01:44:35.550Z,22.20
2022-09-22T01:47:15.264Z,22.20
2022-09-22T01:49:55.019Z,22.30
2022-09-22T01:52:32.722Z,22.30
2022-09-22T01:55:10.094Z,22.40
2022-09-22T01:57:49.166Z,22.50
2022-09-22T02:00:24.365Z,22.50
2022-09-22T02:03:06.423Z,22.60
2022-09-22T02:05:42.993Z,22.50
2022-09-22T02:08:23.031Z,22.60
2022-09-22T02:11:00.283Z,22.50
2022-09-22T02:13:35.041Z,22.50
2022-09-22T02:16:11.186Z,22.40
2022-09-22T02:18:53.349Z,22.60
2022-09-22T02:21:29.091Z,22.60
2022-09-22T02:24:02.833Z,22.60
2022-09-22T02:26:39.154Z,22.60
2022-09-22T02:29:14.366Z,22.70
2022-09-22T02:31:48.453Z,22.60
2022-09-22T02:34:23.978Z,22.70
2022-09-22T02:37:07.730Z,22.50
2022-09-22T02:39:48.194Z,22.40
2022-09-22T02:42:33.616Z,22.60
2022-09-22T02:45:13.850Z,22.90
2022-09-22T02:47:50.611Z,23.00
2022-09-22T02:50:29.500Z,22.90
2022-09-22T02:53:06.927Z,23.10
2022-09-22T02:55:40.232Z,23.20
2022-09-22T02:58:14.395Z,23.30
2022-09-22T03:00:48.416Z,23.30
2022-09-22T03:03:21.751Z,23.30
2022-09-22T03:05:57.397Z,23.30
2022-09-22T03:08:31.865Z,23.20
2022-09-22T03:11:06.263Z,23.00
2022-09-22T03:13:39.464Z,23.10
2022-09-22T03:16:12.989Z,23.20
2022-09-22T03:18:47.096Z,23.40
2022-09-22T03:21:22.955Z,23.50
2022-09-22T03:23:57.037Z,23.60
2022-09-22T03:26:31.104Z,23.60
2022-09-22T03:29:05.205Z,23.60
2022-09-22T03:31:38.635Z,23.60
2022-09-22T03:34:12.732Z,23.60
2022-09-22T03:36:48.714Z,23.40
2022-09-22T03:39:23.107Z,23.50
2022-09-22T03:41:56.453Z,23.40
2022-09-22T03:44:30.137Z,23.40
2022-09-22T03:47:04.285Z,23.30
2022-09-22T03:49:38.307Z,23.30
2022-09-22T03:52:14.162Z,23.40
2022-09-22T03:54:48.022Z,23.50
2022-09-22T03:57:22.242Z,23.60
2022-09-22T03:59:55.723Z,23.70
2022-09-22T04:02:29.371Z,23.60
2022-09-22T04:05:03.295Z,23.60
2022-09-22T04:07:38.673Z,23.70
2022-09-22T04:10:12.295Z,23.80
2022-09-22T04:12:46.039Z,23.80
2022-09-22T04:15:20.460Z,23.70
2022-09-22T04:17:54.329Z,23.90
2022-09-22T04:20:28.773Z,23.90
2022-09-22T04:23:04.617Z,24.00
2022-09-22T04:25:38.384Z,24.10
2022-09-22T04:28:12.398Z,24.10
2022-09-22T04:30:46.127Z,24.20
2022-09-22T04:33:20.106Z,24.10
2022-09-22T04:35:53.588Z,23.90
2022-09-22T04:38:29.434Z,23.90
2022-09-22T04:41:02.582Z,23.90
2022-09-22T04:43:39.092Z,24.10
2022-09-22T04:46:12.645Z,24.20
2022-09-22T04:48:46.426Z,24.30
2022-09-22T04:51:19.723Z,24.40
2022-09-22T04:53:55.302Z,24.40
2022-09-22T04:56:29.256Z,24.50
2022-09-22T04:59:03.386Z,24.60
2022-09-22T05:01:38.126Z,24.60
2022-09-22T05:04:13.226Z,24.60
2022-09-22T05:06:46.999Z,24.60
2022-09-22T05:09:23.884Z,24.50
2022-09-22T05:12:02.390Z,24.50
2022-09-22T05:14:36.765Z,24.40
2022-09-22T05:17:18.650Z,24.60
2022-09-22T05:20:17.171Z,24.50
2022-09-22T05:22:51.010Z,24.60
2022-09-22T05:25:28.011Z,24.70
2022-09-22T05:28:01.791Z,24.70
2022-09-22T05:30:35.505Z,24.80
2022-09-22T05:33:09.396Z,25.00
2022-09-22T05:35:42.539Z,25.20
2022-09-22T05:38:15.834Z,25.30
2022-09-22T05:40:53.372Z,25.40
2022-09-22T05:43:27.618Z,25.60
2022-09-22T05:46:01.745Z,25.40
2022-09-22T05:48:35.216Z,25.80
2022-09-22T05:51:08.991Z,25.60
2022-09-22T05:53:42.237Z,25.50
2022-09-22T05:56:17.207Z,25.30
2022-09-22T05:58:52.129Z,25.40
2022-09-22T06:01:26.111Z,25.40
2022-09-22T06:04:00.715Z,25.40
2022-09-22T06:06:35.613Z,25.50
2022-09-22T06:09:09.731Z,25.60
2022-09-22T06:11:45.817Z,25.50
2022-09-22T06:14:19.935Z,25.40
2022-09-22T06:16:53.746Z,25.40
2022-09-22T06:19:27.353Z,25.30
2022-09-22T06:22:01.476Z,25.30
2022-09-22T06:24:34.868Z,25.50
2022-09-22T06:27:10.937Z,25.70
2022-09-22T06:29:44.805Z,25.70
2022-09-22T06:32:20.609Z,25.50
2022-09-22T06:34:54.332Z,25.70
2022-09-22T06:37:36.080Z,25.60
2022-09-22T06:43:21.607Z,25.50
2022-09-22T06:45:58.686Z,25.60
2022-09-22T06:48:33.441Z,25.70
2022-09-22T06:51:34.334Z,25.70
2022-09-22T06:54:19.182Z,25.50
2022-09-22T06:56:53.198Z,25.60
2022-09-22T06:59:29.329Z,25.40
2022-09-22T07:02:05.618Z,25.40
2022-09-22T07:04:39.538Z,25.40
2022-09-22T07:07:13.627Z,25.50
2022-09-22T07:09:47.075Z,25.40
2022-09-22T07:12:21.307Z,25.50
2022-09-22T07:14:57.812Z,25.40
2022-09-22T07:17:33.888Z,25.30
2022-09-22T07:20:08.817Z,25.20
2022-09-22T07:22:42.803Z,25.40
2022-09-22T07:25:17.718Z,25.50
2022-09-22T07:27:51.310Z,25.60
2022-09-22T07:30:27.469Z,25.60
2022-09-22T07:33:03.307Z,25.60
2022-09-22T07:35:39.108Z,25.50
2022-09-22T07:38:13.334Z,25.40
2022-09-22T07:40:57.337Z,24.80
2022-09-22T07:43:30.670Z,24.80
2022-09-22T07:46:07.760Z,24.60
2022-09-22T07:48:44.215Z,24.80
2022-09-22T07:51:21.827Z,24.80
2022-09-22T07:54:08.322Z,24.90
2022-09-22T07:56:43.816Z,25.10
2022-09-22T07:59:18.763Z,25.10
2022-09-22T08:01:55.350Z,25.10
2022-09-22T08:04:33.105Z,25.00
2022-09-22T08:07:08.735Z,24.90
2022-09-22T08:09:42.567Z,24.80
2022-09-22T08:12:16.110Z,24.80
2022-09-22T08:14:49.383Z,24.70
2022-09-22T08:17:26.132Z,24.70
2022-09-22T08:20:04.141Z,24.70
2022-09-22T08:22:38.304Z,24.60
2022-09-22T08:25:14.043Z,24.60
2022-09-22T08:27:47.850Z,24.70
2022-09-22T08:30:21.058Z,24.70
2022-09-22T08:32:57.159Z,24.50
2022-09-22T08:35:30.277Z,24.50
2022-09-22T08:38:04.079Z,24.50
2022-09-22T08:40:40.432Z,24.50
2022-09-22T08:43:16.414Z,24.40
2022-09-22T08:45:51.372Z,24.30
2022-09-22T08:48:45.193Z,24.40
2022-09-22T08:51:40.217Z,24.30
2022-09-22T08:54:14.333Z,24.30
2022-09-22T08:56:59.069Z,24.30
2022-09-22T08:59:43.484Z,24.30
2022-09-22T09:02:57.574Z,24.20
2022-09-22T09:06:02.649Z,24.20
2022-09-22T09:09:05.532Z,24.30
2022-09-22T09:12:04.532Z,24.40
2022-09-22T09:15:12.147Z,24.50
2022-09-22T09:17:49.027Z,24.50
2022-09-22T09:20:29.435Z,24.40
2022-09-22T09:23:08.749Z,24.30
2022-09-22T09:25:44.939Z,24.20
2022-09-22T09:28:27.014Z,24.20
2022-09-22T09:31:08.805Z,24.20
2022-09-22T09:33:48.775Z,24.10
2022-09-22T09:36:24.699Z,24.10
2022-09-22T09:39:01.028Z,24.10
2022-09-22T09:41:37.669Z,24.10
2022-09-22T09:44:18.131Z,24.10
2022-09-22T09:47:03.856Z,24.10
2022-09-22T09:49:37.749Z,24.10
2022-09-22T09:52:16.044Z,23.90
2022-09-22T09:54:54.964Z,23.90
2022-09-22T09:57:29.784Z,23.70
2022-09-22T10:00:33.909Z,23.80
2022-09-22T10:03:20.243Z,23.80
2022-09-22T10:06:03.972Z,23.80
2022-09-22T10:08:45.316Z,23.70
2022-09-22T10:11:31.225Z,23.60
2022-09-22T10:14:05.221Z,23.60
2022-09-22T10:16:38.885Z,23.60
2022-09-22T10:19:28.274Z,23.50
2022-09-22T10:22:30.135Z,23.50
2022-09-22T10:25:06.002Z,23.50
2022-09-22T10:27:42.050Z,23.50
2022-09-22T10:30:34.315Z,23.40
2022-09-22T10:33:25.579Z,23.30
2022-09-22T10:36:09.457Z,23.30
2022-09-22T10:38:47.122Z,23.30
2022-09-22T10:41:28.510Z,23.20
2022-09-22T10:44:27.754Z,23.20
2022-09-22T10:47:14.273Z,23.10
2022-09-22T10:50:24.820Z,23.10
2022-09-22T10:53:04.025Z,23.10
2022-09-22T10:55:41.210Z,22.90
2022-09-22T10:58:30.800Z,22.90
2022-09-22T11:01:22.327Z,22.90
2022-09-22T11:04:14.663Z,22.80
2022-09-22T11:07:25.798Z,22.70
2022-09-22T11:10:21.226Z,22.70
2022-09-22T11:13:04.548Z,22.70
2022-09-22T11:15:57.660Z,22.70
2022-09-22T11:18:51.500Z,22.60
2022-09-22T11:21:36.156Z,22.50
2022-09-22T11:24:40.793Z,22.40
2022-09-22T11:27:19.534Z,22.30
2022-09-22T11:30:15.206Z,22.30
2022-09-22T11:33:18.014Z,22.20
2022-09-22T11:36:24.883Z,22.10
2022-09-22T11:39:26.662Z,22.00
2022-09-22T11:42:11.448Z,22.00
2022-09-22T11:44:54.646Z,21.90
2022-09-22T11:47:41.342Z,21.80
2022-09-22T11:50:45.775Z,21.80
2022-09-22T11:53:43.082Z,21.70
2022-09-22T11:56:34.955Z,21.60
2022-09-22T11:59:16.428Z,21.70
2022-09-22T12:01:52.648Z,21.70
2022-09-22T12:04:41.554Z,21.60
2022-09-22T12:07:28.008Z,21.60
2022-09-22T12:10:08.263Z,21.60
2022-09-22T12:12:46.298Z,21.50
2022-09-22T12:15:31.344Z,21.50
2022-09-22T12:18:12.087Z,21.50
2022-09-22T12:21:04.757Z,21.50
2022-09-22T12:23:49.010Z,21.40
2022-09-22T12:26:35.147Z,21.20
2022-09-22T12:29:27.969Z,21.20
2022-09-22T12:32:03.385Z,21.20
2022-09-22T12:34:41.126Z,21.10
2022-09-22T12:37:16.486Z,21.00
2022-09-22T12:39:52.428Z,21.00
2022-09-22T12:42:35.153Z,21.00
2022-09-22T12:45:17.065Z,21.00
2022-09-22T12:47:56.970Z,21.00
2022-09-22T12:50:42.311Z,20.80
2022-09-22T12:53:28.803Z,20.80
2022-09-22T12:56:03.219Z,20.80
2022-09-22T12:58:49.063Z,20.70
2022-09-22T13:01:35.955Z,20.70
2022-09-22T13:04:22.232Z,20.70
2022-09-22T13:07:03.736Z,20.70
2022-09-22T13:09:36.887Z,20.70
2022-09-22T13:12:32.532Z,20.60
2022-09-22T13:15:21.982Z,20.70
2022-09-22T13:17:56.259Z,20.60
2022-09-22T13:20:35.148Z,20.60
2022-09-22T13:23:14.246Z,20.50
2022-09-22T13:25:48.559Z,20.50
2022-09-22T13:28:23.750Z,20.50
2022-09-22T13:31:19.864Z,20.50
2022-09-22T13:33:54.050Z,20.50
2022-09-22T13:36:28.702Z,20.50
2022-09-22T13:39:03.933Z,20.40
2022-09-22T13:41:45.357Z,20.40
2022-09-22T13:44:21.684Z,20.40
2022-09-22T13:46:58.593Z,20.40
2022-09-22T13:49:41.446Z,20.30
2022-09-22T13:52:19.508Z,20.30
2022-09-22T13:54:57.964Z,20.40
2022-09-22T13:57:34.086Z,20.30
2022-09-22T14:00:09.385Z,20.40
2022-09-22T14:02:49.165Z,20.60
2022-09-22T14:05:24.131Z,20.50
2022-09-22T14:08:18.302Z,20.60
2022-09-22T14:10:53.990Z,20.70
2022-09-22T14:13:44.810Z,20.80
2022-09-22T14:16:26.992Z,20.80
2022-09-22T14:19:09.219Z,20.70
2022-09-22T14:21:48.564Z,20.60
2022-09-22T14:24:22.968Z,20.50
2022-09-22T14:27:03.119Z,20.50
2022-09-22T14:29:39.872Z,20.70
2022-09-22T14:32:19.729Z,20.60
2022-09-22T14:34:59.743Z,20.60
2022-09-22T14:37:36.542Z,20.60
2022-09-22T14:40:20.361Z,20.70
2022-09-22T14:43:05.571Z,20.70
2022-09-22T14:45:40.069Z,20.70
2022-09-22T14:48:23.342Z,20.60
2022-09-22T14:51:02.986Z,20.70
2022-09-22T14:53:41.034Z,20.70
2022-09-22T14:56:19.423Z,20.70
2022-09-22T14:59:01.028Z,20.70
2022-09-22T15:01:53.143Z,20.70
2022-09-22T15:04:28.850Z,20.80
2022-09-22T15:07:04.781Z,20.80
2022-09-22T15:09:42.602Z,20.70
2022-09-22T15:12:39.249Z,20.70
2022-09-22T15:15:25.269Z,20.70
2022-09-22T15:18:20.993Z,20.80
2022-09-22T15:20:57.356Z,20.80
2022-09-22T15:23:40.689Z,20.70
2022-09-22T15:26:21.722Z,20.70
2022-09-22T15:29:00.198Z,20.70
2022-09-22T15:31:34.606Z,20.70
2022-09-22T15:34:08.846Z,20.60
2022-09-22T15:36:47.828Z,20.60
2022-09-22T15:39:26.729Z,20.60
2022-09-22T15:41:59.982Z,20.60
2022-09-22T15:44:34.385Z,20.60
2022-09-22T15:47:08.350Z,20.50
2022-09-22T15:49:42.820Z,20.50
2022-09-22T15:52:16.392Z,20.40
2022-09-22T15:54:51.153Z,20.40
2022-09-22T15:57:25.267Z,20.40
2022-09-22T15:59:59.061Z,20.30
2022-09-22T16:02:33.376Z,20.40
2022-09-22T16:05:07.515Z,20.40
2022-09-22T16:07:42.085Z,20.40
2022-09-22T16:10:20.733Z,20.30
2022-09-22T16:12:55.061Z,20.30
2022-09-22T16:15:28.452Z,20.30
2022-09-22T16:18:02.508Z,20.30
2022-09-22T16:20:36.576Z,20.30
2022-09-22T16:23:11.301Z,20.40
2022-09-22T16:25:47.748Z,20.30
2022-09-22T16:28:21.537Z,20.30
2022-09-22T16:30:55.193Z,20.30
2022-09-22T16:33:28.927Z,20.40
2022-09-22T16:36:02.568Z,20.40
2022-09-22T16:38:36.421Z,20.30
2022-09-22T16:41:21.375Z,20.30
2022-09-22T16:43:55.679Z,20.30
2022-09-22T16:46:33.288Z,20.30
2022-09-22T16:49:09.209Z,20.30
2022-09-22T16:51:44.606Z,20.30
2022-09-22T16:54:19.619Z,20.30
2022-09-22T16:56:56.952Z,20.20
2022-09-22T16:59:31.083Z,20.20
2022-09-22T17:02:04.371Z,20.30
2022-09-22T17:04:38.173Z,20.20
2022-09-22T17:07:11.796Z,20.10
2022-09-22T17:09:46.228Z,20.20
2022-09-22T17:12:21.283Z,20.20
2022-09-22T17:14:55.076Z,20.20
2022-09-22T17:17:28.786Z,20.20
2022-09-22T17:20:02.889Z,20.20
2022-09-22T17:22:36.497Z,20.20
2022-09-22T17:25:11.101Z,20.20
2022-09-22T17:27:46.774Z,20.10
2022-09-22T17:30:20.561Z,20.10
2022-09-22T17:32:55.096Z,20.10
2022-09-22T17:35:28.839Z,20.10
2022-09-22T17:38:03.265Z,20.10
2022-09-22T17:40:37.145Z,20.10
2022-09-22T17:43:17.589Z,20.20
2022-09-22T17:45:55.179Z,20.10
2022-09-22T17:48:46.256Z,20.20
2022-09-22T17:51:50.763Z,20.10
2022-09-22T17:54:42.700Z,20.10
2022-09-22T17:57:18.386Z,20.00
2022-09-22T17:59:54.961Z,20.00
2022-09-22T18:02:33.502Z,20.00
2022-09-22T18:05:08.042Z,20.10
2022-09-22T18:07:42.675Z,20.10
2022-09-22T18:10:19.099Z,20.20
2022-09-22T18:12:52.823Z,20.10
2022-09-22T18:15:29.975Z,20.10
2022-09-22T18:18:03.393Z,20.10
2022-09-22T18:20:36.726Z,20.00
2022-09-22T18:23:10.224Z,20.00
2022-09-22T18:25:43.904Z,20.00
2022-09-22T18:28:17.702Z,20.00
2022-09-22T18:30:53.403Z,19.90
2022-09-22T18:33:27.845Z,19.90
2022-09-22T18:36:01.222Z,19.90
2022-09-22T18:38:34.600Z,19.90
2022-09-22T18:41:08.443Z,19.90
2022-09-22T18:43:43.789Z,20.00
2022-09-22T18:46:21.958Z,19.90
2022-09-22T18:48:58.671Z,19.90
2022-09-22T18:51:32.350Z,19.90
2022-09-22T18:54:09.564Z,19.80
2022-09-22T18:56:46.712Z,19.70
2022-09-22T18:59:22.179Z,19.70
2022-09-22T19:01:58.840Z,19.60
2022-09-22T19:04:33.065Z,19.50
2022-09-22T19:07:22.594Z,19.60
2022-09-22T19:09:56.048Z,19.60
2022-09-22T19:12:32.094Z,19.60
2022-09-22T19:15:06.326Z,19.70
2022-09-22T19:17:41.943Z,19.50
2022-09-22T19:20:18.350Z,19.60
2022-09-22T19:22:53.445Z,19.50
2022-09-22T19:25:27.837Z,19.50
2022-09-22T19:28:03.609Z,19.50
2022-09-22T19:30:37.810Z,19.70
2022-09-22T19:33:13.915Z,19.60
2022-09-22T19:35:47.512Z,19.60
2022-09-22T19:38:21.558Z,19.50
2022-09-22T19:40:58.756Z,19.60
2022-09-22T19:43:33.213Z,19.50
2022-09-22T19:46:07.188Z,19.60
2022-09-22T19:48:42.880Z,19.60
2022-09-22T19:51:15.678Z,19.40
2022-09-22T19:53:49.463Z,19.40
2022-09-22T19:56:23.552Z,19.30
2022-09-22T19:58:58.027Z,19.40
2022-09-22T20:01:37.218Z,19.50
2022-09-22T20:04:17.293Z,19.20
2022-09-22T20:06:51.573Z,19.20
2022-09-22T20:09:25.420Z,19.10
2022-09-22T20:11:59.645Z,19.10
2022-09-22T20:14:34.047Z,19.20
2022-09-22T20:17:09.489Z,19.30
2022-09-22T20:19:45.818Z,19.20
2022-09-22T20:22:28.833Z,19.20
2022-09-22T20:25:04.014Z,19.20
2022-09-22T20:27:39.173Z,19.20
2022-09-22T20:30:13.785Z,19.20
2022-09-22T20:32:48.760Z,19.20
2022-09-22T20:35:25.828Z,19.30
2022-09-22T20:38:00.546Z,19.20
2022-09-22T20:40:34.581Z,19.20
2022-09-22T20:43:08.916Z,19.30
2022-09-22T20:45:43.148Z,19.20
2022-09-22T20:48:20.758Z,19.30
2022-09-22T20:51:03.437Z,19.40
2022-09-22T20:53:41.175Z,19.30
2022-09-22T20:56:15.832Z,19.30
2022-09-22T20:58:50.384Z,19.30
2022-09-22T21:01:27.330Z,19.20
2022-09-22T21:04:01.682Z,19.20
2022-09-22T21:06:37.734Z,19.20
2022-09-22T21:09:28.269Z,19.20
2022-09-22T21:12:01.531Z,19.10
2022-09-22T21:14:35.361Z,19.10
2022-09-22T21:17:10.285Z,19.10
2022-09-22T21:19:44.514Z,19.20
2022-09-22T21:22:21.150Z,19.20
2022-09-22T21:24:54.880Z,19.10
2022-09-22T21:27:28.929Z,19.10
2022-09-22T21:30:03.034Z,19.00
2022-09-22T21:32:37.365Z,19.00
2022-09-22T21:35:11.311Z,19.20
2022-09-22T21:37:46.976Z,19.00
2022-09-22T21:40:20.945Z,19.00
2022-09-22T21:42:54.408Z,19.00
2022-09-22T21:45:28.233Z,18.90
2022-09-22T21:48:03.061Z,19.00
2022-09-22T21:50:36.759Z,19.10
2022-09-22T21:53:13.600Z,19.10
2022-09-22T21:55:48.025Z,19.20
2022-09-22T21:58:22.420Z,19.10
2022-09-22T22:00:56.630Z,19.00
2022-09-22T22:03:36.818Z,19.00
2022-09-22T22:06:13.985Z,19.10
2022-09-22T22:08:51.593Z,19.20
2022-09-22T22:11:26.558Z,19.20
2022-09-22T22:14:01.649Z,19.10
2022-09-22T22:16:44.067Z,19.10
2022-09-22T22:19:21.247Z,19.20
2022-09-22T22:21:56.315Z,19.20
2022-09-22T22:24:36.784Z,19.10
2022-09-22T22:27:11.416Z,19.00
2022-09-22T22:29:46.004Z,19.10
2022-09-22T22:32:20.696Z,19.20
2022-09-22T22:34:56.716Z,19.10
2022-09-22T22:37:30.467Z,19.10
2022-09-22T22:40:06.897Z,19.20
2022-09-22T22:42:41.217Z,19.20
2022-09-22T22:45:15.903Z,19.20
2022-09-22T22:47:50.221Z,19.10
2022-09-22T22:50:24.035Z,19.10
2022-09-22T22:52:58.064Z,19.20
2022-09-22T22:55:33.660Z,19.10
2022-09-22T22:58:08.155Z,19.10
2022-09-22T23:00:41.796Z,19.00
2022-09-22T23:03:15.471Z,19.10
2022-09-22T23:05:58.412Z,19.00
2022-09-22T23:08:33.523Z,18.90
2022-09-22T23:11:12.623Z,18.90
2022-09-22T23:13:52.202Z,19.00
2022-09-22T23:16:28.410Z,19.00
2022-09-22T23:19:03.434Z,19.00
2022-09-22T23:21:36.841Z,19.00
2022-09-22T23:24:11.991Z,19.00
2022-09-22T23:26:47.654Z,19.00
2022-09-22T23:29:24.820Z,18.90
2022-09-22T23:31:59.133Z,19.00
2022-09-22T23:34:33.099Z,19.10
2022-09-22T23:37:07.360Z,19.20
2022-09-22T23:39:40.859Z,19.00
2022-09-22T23:42:17.072Z,19.10
2022-09-22T23:44:50.688Z,19.10
2022-09-22T23:47:24.902Z,19.10
2022-09-22T23:49:58.484Z,19.20
2022-09-22T23:52:32.685Z,19.10
2022-09-22T23:55:06.070Z,19.10
2022-09-22T23:57:42.163Z,19.10
